• Join FlightAware (Why Join?)
  • Login
  • US Flag 
10:09PM EDT


 

Airport Tracker/Info


-or-


 

Live Flight TrackerFlight Track Log ✈ DAL268 ✈ 06-Aug-2013 ✈ KJFK - LLBG / TLV

Flight Track Log - Related Links

Times and Time Zones

All times are in EDT time to prevent confusion due to time zone crossing. See the DAL268 flight status page for this flight to view local times or setup timezone preferences in your user account.

Time Position Orientation Groundspeed Altitude Reporting Facility
EDT Latitude Longitude Course Direction KTS MPH feet Rate Location/Type
11:54PM 40.6370 -73.7800 261° West  Level FlightAware
12:00AM 40.5833 -73.3683 90° East  Level FlightAware Approximate
12:00AM 40.6380 -73.7790 97° East  Level FlightAware
12:01AM 40.5629 -73.1913 97° East  Level FlightAware Approximate
12:03AM 40.5907 -73.4128 108° East  Level FlightAware Approximate
12:12AM 40.5833 -73.3101 90° East  Level FlightAware Approximate
12:16AM 40.6420 -73.7700 211° Southwest 100 115  Level FlightAware
12:16AM 40.6310 -73.7790 212° Southwest 165 190 660 Level FlightAware
12:16AM 40.6150 -73.7910 210° Southwest 173 199 500 1,680 Climbing FlightAware
12:17AM 40.6010 -73.8020 211° Southwest 177 204 1,200 1,680 Climbing FlightAware
12:17AM 40.5850 -73.8150 212° Southwest 193 222 1,700 1,260 Climbing FlightAware
12:17AM 40.5790 -73.8180 201° Southwest 201 231 1,800 840 Climbing FlightAware
12:17AM 40.5720 -73.8200 192° South 212 244 1,900 840 Climbing FlightAware
12:18AM 40.5460 -73.8070 159° South 244 281 2,300 720 Climbing FlightAware
12:18AM 40.5410 -73.8010 138° Southeast 254 292 2,300 420 Level FlightAware
12:18AM 40.5360 -73.7900 121° Southeast 263 303 2,400 1,200 Climbing FlightAware
12:18AM 40.5320 -73.7780 114° Southeast 269 310 2,600 1,500 Climbing FlightAware
12:18AM 40.5300 -73.7670 103° East 274 315 2,800 1,860 Climbing FlightAware
12:18AM 40.5280 -73.7520 100° East 278 320 3,100 1,860 Climbing FlightAware
12:19AM 40.5300 -73.7190 85° East 205 236 3,800 2,220 Climbing FlightAware
12:19AM 40.5415 -73.6649 74° East 292 336 5,000 2,520 Climbing FlightAware ADS-B
12:19AM 40.5461 -73.6424 75° East 296 341 5,500 2,460 Climbing FlightAware ADS-B
12:20AM 40.5505 -73.6015 82° East 296 341 6,500 2,400 Climbing FlightAware ADS-B
12:20AM 40.5510 -73.5943 85° East 296 341 6,600 1,800 Climbing FlightAware ADS-B
12:20AM 40.5523 -73.5652 87° East 303 349 7,100 1,920 Climbing FlightAware ADS-B
12:20AM 40.5532 -73.5372 88° East 309 356 7,600 1,920 Climbing FlightAware ADS-B
12:21AM 40.5541 -73.5070 88° East 312 359 8,100 2,040 Climbing FlightAware ADS-B
12:21AM 40.5547 -73.4764 89° East 313 360 8,700 2,160 Climbing FlightAware ADS-B
12:21AM 40.5549 -73.4439 90° East 318 366 9,300 1,860 Climbing FlightAware ADS-B
12:21AM 40.5549 -73.4146 90° East 322 371 9,700 1,560 Climbing FlightAware ADS-B
12:22AM 40.5551 -73.3524 90° East 338 389 10,500 1,260 Climbing FlightAware ADS-B
12:22AM 40.5558 -73.2885 89° East 361 415 11,000 1,080 Climbing FlightAware ADS-B
12:23AM 40.5568 -73.2204 89° East 383 441 11,600 1,080 Climbing FlightAware ADS-B
12:23AM 40.5578 -73.1481 89° East 406 467 12,100 1,440 Climbing FlightAware ADS-B
12:24AM 40.5588 -73.0703 89° East 418 481 13,100 1,980 Climbing FlightAware ADS-B
12:24AM 40.5601 -73.0500 85° East 418 481 13,400 2,340 Climbing FlightAware ADS-B
12:24AM 40.5717 -72.9884 76° East 420 483 14,400 2,160 Climbing FlightAware ADS-B
12:25AM 40.5980 -72.9140 65° Northeast 426 490 15,500 1,980 Climbing FlightAware
12:25AM 40.6178 -72.8567 66° East 433 498 16,300 2,100 Climbing FlightAware ADS-B
12:26AM 40.6445 -72.7849 64° Northeast 438 504 17,400 1,980 Climbing FlightAware ADS-B
12:26AM 40.6722 -72.7071 65° Northeast 443 510 18,400 1,860 Climbing FlightAware ADS-B
12:27AM 40.6985 -72.6335 65° Northeast 448 516 19,300 1,740 Climbing FlightAware ADS-B
12:27AM 40.7258 -72.5564 65° Northeast 454 522 20,200 1,500 Climbing FlightAware ADS-B
12:28AM 40.7533 -72.4779 65° Northeast 463 533 20,900 1,440 Climbing FlightAware ADS-B
12:28AM 40.7816 -72.3981 65° Northeast 468 539 21,700 1,560 Climbing FlightAware ADS-B
12:29AM 40.8120 -72.3121 65° Northeast 473 544 22,600 1,440 Climbing FlightAware ADS-B
12:30AM 40.8425 -72.2274 65° Northeast 481 554 23,300 1,260 Climbing FlightAware ADS-B
12:30AM 40.8724 -72.1416 65° Northeast 487 560 24,000 1,320 Climbing FlightAware ADS-B
12:31AM 40.9018 -72.0573 65° Northeast 492 566 24,700 1,260 Climbing FlightAware ADS-B
12:31AM 40.9307 -71.9750 65° Northeast 498 573 25,300 1,140 Climbing FlightAware ADS-B
12:32AM 40.9603 -71.8887 66° East 503 579 25,900 1,140 Climbing FlightAware ADS-B
12:32AM 40.9921 -71.7987 65° Northeast 504 580 26,500 1,140 Climbing FlightAware ADS-B
12:33AM 41.0355 -71.6734 65° Northeast 514 592 27,400 1,260 Climbing FlightAware ADS-B
12:34AM 41.1150 -71.4430 65° Northeast 29,100 1,260 Climbing FlightAware
12:35AM 41.1480 -71.3440 66° East 515 593 29,900 1,380 Climbing FlightAware
12:35AM 41.1780 -71.2550 66° East 514 592 30,600 900 Climbing FlightAware
12:36AM 41.2160 -71.1430 66° East 514 592 31,000 300 Climbing FlightAware
12:36AM 41.2450 -71.0570 66° East 513 590 31,000  Level FlightAware
12:37AM 41.2800 -70.9530 66° East 512 589 31,000  Level FlightAware
12:38AM 41.3190 -70.8380 66° East 513 590 31,000  Level FlightAware
12:39AM 41.3710 -70.6850 66° East 512 589 31,000  Level FlightAware
12:39AM 41.4000 -70.5970 66° East 512 589 31,000  Level FlightAware
12:40AM 41.4320 -70.5010 66° East 512 589 31,000  Level FlightAware
12:41AM 41.4830 -70.3420 67° East 509 586 31,000  Level FlightAware
12:41AM 41.5220 -70.2240 66° East 508 585 31,000  Level FlightAware
12:42AM 41.5480 -70.1410 67° East 508 585 31,000  Level FlightAware
12:43AM 41.5950 -70.0030 65° Northeast 31,000  Level FlightAware
12:43AM 41.6400 -69.8640 67° East 507 583 31,000  Level FlightAware
12:44AM 41.6760 -69.7500 67° East 508 585 31,000  Level FlightAware
12:45AM 41.7070 -69.6540 67° East 508 585 31,000  Level FlightAware
12:45AM 41.7350 -69.5660 67° East 508 585 31,000  Level FlightAware
12:47AM 41.8370 -69.2440 67° East 507 583 31,000  Level FlightAware
12:47AM 41.8670 -69.1500 67° East 507 583 31,000  Level FlightAware
12:48AM 41.9060 -69.0280 67° East 508 585 31,000  Level FlightAware
12:49AM 41.9410 -68.9120 68° East 509 586 31,000  Level FlightAware
12:49AM 41.9760 -68.8010 67° East 511 588 31,000  Level FlightAware
12:50AM 42.0170 -68.6690 67° East 512 589 31,000  Level FlightAware
12:51AM 42.0480 -68.5690 67° East 514 592 31,000  Level FlightAware
12:51AM 42.0750 -68.4830 67° East 515 593 31,000  Level FlightAware
12:52AM 42.1070 -68.3760 68° East 516 594 31,000  Level FlightAware
12:52AM 42.1430 -68.2570 68° East 518 596 31,000  Level FlightAware
12:53AM 42.1750 -68.1520 68° East 520 598 31,000  Level FlightAware
12:54AM 42.2060 -68.0500 68° East 520 598 31,000  Level FlightAware
12:54AM 42.2430 -67.9270 68° East 520 598 31,000  Level FlightAware
12:55AM 42.2840 -67.7910 68° East 521 600 31,000  Level FlightAware
12:56AM 42.3140 -67.6880 68° East 521 600 31,000  Level FlightAware
12:56AM 42.3430 -67.5930 68° East 521 600 31,000  Level FlightAware
12:57AM 42.3700 -67.5010 68° East 521 600 31,000  Level FlightAware
12:58AM 42.3980 -67.4080 68° East 521 600 31,000  Level FlightAware
12:58AM 42.4250 -67.3160 68° East 521 600 31,000  Level FlightAware
12:59AM 42.4540 -67.2200 68° East 521 600 31,000  Level FlightAware
12:59AM 42.4810 -67.1280 68° East 521 600 31,000  Level FlightAware
01:00AM 42.5080 -67.0400 67° East 521 600 31,000  Level FlightAware
01:01AM 42.5800 -66.7810 69° East 530 610 31,000 300 Level FlightAware
01:01AM 42.6080 -66.6820 69° East 530 610 31,400 780 Climbing FlightAware
01:02AM 42.6360 -66.5830 69° East 532 612 31,900 840 Climbing FlightAware
01:02AM 42.6490 -66.5400 68° East 532 612 32,100 780 Climbing FlightAware
01:03AM 42.7090 -66.3260 69° East 537 618 33,000 540 Climbing FlightAware
01:04AM 42.7360 -66.2280 69° East 541 623 33,000  Level FlightAware
01:04AM 42.7760 -66.0880 69° East 540 621 33,000  Level FlightAware
01:05AM 42.8070 -65.9770 69° East 541 623 33,000  Level FlightAware
01:05AM 42.8380 -65.8650 69° East 539 620 33,000  Level FlightAware
01:06AM 42.8660 -65.7630 69° East 544 626 33,000  Level FlightAware
01:07AM 42.9080 -65.6090 70° East 544 626 33,000  Level FlightAware
01:08AM 42.9480 -65.4640 69° East 545 627 33,000  Level FlightAware
01:08AM 42.9830 -65.3350 70° East 546 628 33,000  Level FlightAware
01:09AM 43.0140 -65.2190 70° East 545 627 33,000  Level FlightAware
01:10AM 43.0540 -65.0740 69° East 543 625 33,000  Level FlightAware
01:10AM 43.0850 -64.9570 70° East 544 626 33,000  Level FlightAware
01:11AM 43.1100 -64.8630 70° East 543 625 33,000  Level FlightAware
01:11AM 43.1490 -64.7170 70° East 544 626 33,000  Level FlightAware
01:12AM 43.1820 -64.5900 70° East 544 626 33,000  Level FlightAware
01:13AM 43.2080 -64.4890 71° East 545 627 33,000  Level FlightAware
01:13AM 43.2410 -64.3610 70° East 546 628 33,000  Level FlightAware
01:14AM 43.2690 -64.2530 70° East 551 634 33,000  Level FlightAware
01:14AM 43.2980 -64.1440 70° East 551 634 33,000  Level FlightAware
01:15AM 43.3380 -63.9880 71° East 552 635 33,000  Level FlightAware
01:16AM 43.3640 -63.8860 71° East 554 638 33,000  Level FlightAware
01:16AM 43.4060 -63.7200 71° East 555 639 33,000  Level FlightAware
01:17AM 43.4350 -63.6070 71° East 556 640 33,000  Level FlightAware
01:18AM 43.4620 -63.4970 71° East 557 641 33,000  Level FlightAware
01:18AM 43.4940 -63.3730 70° East 556 640 33,000  Level FlightAware
01:19AM 43.5160 -63.2830 71° East 557 641 33,000  Level FlightAware
01:19AM 43.5520 -63.1350 71° East 558 642 33,000  Level FlightAware
01:20AM 43.5630 -63.0910 71° East 558 642 33,000  Level FlightAware
01:20AM 43.6040 -62.9230 71° East 558 642 33,000  Level FlightAware
01:21AM 43.6370 -62.7890 71° East 558 642 33,000  Level FlightAware
01:22AM 43.6660 -62.6700 71° East 558 642 33,000  Level FlightAware
01:22AM 43.6720 -62.6470 70° East 558 642 33,000  Level FlightAware
01:23AM 43.7080 -62.4980 71° East 559 643 33,000  Level FlightAware
01:23AM 43.7400 -62.3620 72° East 560 644 33,000  Level FlightAware
01:24AM 43.7700 -62.2360 72° East 561 646 33,000  Level FlightAware
01:24AM 43.7990 -62.1130 72° East 562 647 33,000  Level FlightAware
01:25AM 43.8320 -61.9700 72° East 562 647 33,000  Level FlightAware
01:26AM 43.8600 -61.8500 72° East 562 647 33,000  Level FlightAware
01:26AM 43.8900 -61.7230 72° East 564 649 33,000  Level FlightAware
01:27AM 43.9160 -61.6120 72° East 564 649 33,000  Level FlightAware
01:28AM 43.9400 -61.5070 72° East 564 649 33,000  Level FlightAware
01:28AM 43.9650 -61.4010 72° East 564 649 33,000  Level FlightAware
01:29AM 43.9900 -61.2960 72° East 564 649 33,000  Level FlightAware
01:29AM 44.0150 -61.1870 72° East 564 649 33,000  Level FlightAware
01:30AM 44.0400 -61.0820 72° East 564 649 33,000  Level FlightAware
01:31AM 44.0640 -60.9760 72° East 564 649 33,000  Level FlightAware
01:31AM 44.0890 -60.8700 72° East 564 649 33,000  Level FlightAware
01:32AM 44.1140 -60.7640 72° East 564 649 33,000  Level FlightAware
01:32AM 44.1380 -60.6590 72° East 564 649 33,000  Level FlightAware
01:33AM 44.1630 -60.5530 72° East 564 649 33,000  Level FlightAware
01:34AM 44.2310 -60.2010 75° East 569 655 33,000  Level FlightAware
01:34AM 44.2550 -60.0900 73° East 569 655 33,000  Level FlightAware
01:35AM 44.2800 -59.9680 74° East 569 655 33,000  Level FlightAware
01:35AM 44.3090 -59.8310 73° East 570 656 33,000  Level FlightAware
01:36AM 44.3360 -59.7040 73° East 570 656 33,000  Level FlightAware
01:36AM 44.3540 -59.6190 73° East 570 656 33,000  Level FlightAware
01:37AM 44.3840 -59.4780 73° East 571 657 33,000  Level FlightAware
01:37AM 44.4060 -59.3680 74° East 572 658 33,000  Level FlightAware
01:38AM 44.4340 -59.2360 73° East 573 659 33,000  Level FlightAware
01:39AM 44.4600 -59.1080 74° East 572 658 33,000  Level FlightAware
01:39AM 44.4830 -58.9940 74° East 573 659 33,000  Level FlightAware
01:40AM 44.5110 -58.8590 74° East 574 661 33,000  Level FlightAware
01:40AM 44.5360 -58.7330 74° East 574 661 33,000  Level FlightAware
01:41AM 44.5620 -58.6050 74° East 575 662 33,000  Level FlightAware
01:42AM 44.5850 -58.4860 75° East 575 662 33,000  Level FlightAware
01:42AM 44.6110 -58.3570 74° East 576 663 33,000  Level FlightAware
01:43AM 44.6390 -58.2160 74° East 578 665 33,000  Level FlightAware
01:43AM 44.6640 -58.0860 75° East 579 666 33,000  Level FlightAware
01:44AM 44.6900 -57.9520 75° East 578 665 33,000  Level FlightAware
01:45AM 44.7120 -57.8390 75° East 578 665 33,000  Level FlightAware
01:45AM 44.7370 -57.7050 75° East 579 666 33,000  Level FlightAware
01:46AM 44.7560 -57.6060 75° East 579 666 33,000  Level FlightAware
01:46AM 44.7780 -57.4910 75° East 579 666 33,000  Level FlightAware
01:47AM 44.7990 -57.3790 75° East 579 666 33,000  Level FlightAware
01:48AM 44.8200 -57.2680 75° East 579 666 33,000  Level FlightAware
01:48AM 44.8650 -57.0260 75° East 582 670 33,000  Level FlightAware
01:49AM 44.8860 -56.9140 75° East 582 670 33,000  Level FlightAware
01:50AM 44.9070 -56.8020 75° East 582 670 33,000  Level FlightAware
01:50AM 44.9290 -56.6860 75° East 582 670 33,000  Level FlightAware
01:51AM 44.9500 -56.5740 75° East 582 670 33,000  Level FlightAware
01:51AM 44.9720 -56.4610 75° East 582 670 33,000  Level FlightAware
01:52AM 44.9930 -56.3490 75° East 582 670 33,000  Level FlightAware
01:53AM 45.0150 -56.2330 75° East 582 670 33,000  Level FlightAware
01:53AM 45.0360 -56.1200 75° East 582 670 33,000  Level FlightAware
01:54AM 45.0590 -56.0020 75° East 582 670 33,000  Level FlightAware
01:54AM 45.0810 -55.8860 75° East 582 670 33,000  Level FlightAware
01:55AM 45.1020 -55.7730 75° East 582 670 33,000  Level FlightAware
01:56AM 45.1230 -55.6600 75° East 582 670 33,000  Level FlightAware
01:56AM 45.1450 -55.5470 75° East 582 670 33,000  Level FlightAware
01:57AM 45.1660 -55.4340 75° East 582 670 33,000  Level FlightAware
01:57AM 45.1870 -55.3250 75° East 582 670 33,000  Level FlightAware
01:59AM 45.3120 -54.5580 77° East 602 693 33,000  Level FlightAware
02:00AM 45.3340 -54.4310 76° East 602 693 33,000  Level FlightAware
02:00AM 45.3590 -54.2850 76° East 603 694 33,000  Level FlightAware
02:01AM 45.3820 -54.1460 77° East 604 695 33,000  Level FlightAware
02:02AM 45.4010 -54.0420 75° East 604 695 33,000  Level FlightAware
02:02AM 45.4210 -53.9230 76° East 604 695 33,000  Level FlightAware
02:03AM 45.4420 -53.8050 76° East 604 695 33,000  Level FlightAware
02:03AM 45.4630 -53.6870 76° East 604 695 33,000  Level FlightAware
02:04AM 45.4830 -53.5690 76° East 604 695 33,000  Level FlightAware
02:05AM 45.5040 -53.4470 76° East 604 695 33,000  Level FlightAware
02:05AM 45.5250 -53.3290 76° East 604 695 33,000  Level FlightAware
02:06AM 45.5460 -53.2100 76° East 604 695 33,000  Level FlightAware
02:06AM 45.5660 -53.0920 76° East 604 695 33,000  Level FlightAware
02:07AM 45.5880 -52.9700 76° East 604 695 33,000  Level FlightAware
02:08AM 45.6080 -52.8510 76° East 604 695 33,000  Level FlightAware
02:08AM 45.6290 -52.7330 76° East 604 695 33,000  Level FlightAware
02:09AM 45.6500 -52.6140 76° East 604 695 33,000  Level FlightAware
02:09AM 45.6710 -52.4920 76° East 604 695 33,000  Level FlightAware
02:10AM 45.6920 -52.3730 76° East 604 695 33,000  Level FlightAware
02:11AM 45.7120 -52.2540 76° East 604 695 33,000  Level FlightAware
02:11AM 45.7333 -51.6833 76° East 610 702 33,000  Level Moncton Center
02:12AM 45.7833 -51.4500 73° East 600 690 33,000  Level Moncton Center
02:13AM 45.8167 -51.2000 79° East 600 690 33,000  Level Moncton Center
02:15AM 45.8500 -50.9167 80° East 600 690 33,000  Level Gander Center
02:16AM 45.8833 -50.7000 77° East 600 690 33,000  Level Gander Center
02:17AM 45.9167 -50.4500 79° East 600 690 33,000  Level Gander Center
02:18AM 45.9500 -50.2167 78° East 590 679 33,000  Level Gander Center
02:19AM 45.9833 -50.0000 77° East 600 690 33,000  Level Gander Center
02:20AM 46.0000 -49.7500 84° East 600 690 33,000  Level Gander Center
02:21AM 46.0500 -49.5167 73° East 600 690 33,000  Level Gander Center
02:22AM 46.0667 -49.2667 84° East 590 679 33,000  Level Gander Center
02:23AM 46.1167 -49.0500 72° East 600 690 33,000  Level Gander Center
02:24AM 46.1333 -48.8000 84° East 590 679 33,000  Level Gander Center
02:25AM 46.1833 -48.5667 73° East 600 690 33,000  Level Gander Center
02:26AM 46.2000 -48.3667 83° East 590 679 33,000  Level Gander Center
02:27AM 46.2333 -48.1167 79° East 600 690 33,000  Level Gander Center
02:28AM 46.2667 -47.8833 78° East 590 679 33,000  Level Gander Center
02:29AM 46.3000 -47.6333 79° East 590 679 33,000  Level Gander Center
02:30AM 46.3167 -47.4167 84° East 590 679 33,000  Level Gander Center
02:31AM 46.3333 -47.1833 84° East 590 679 33,000  Level Gander Center
02:32AM 46.3833 -46.9500 73° East 580 667 33,000  Level Gander Center
02:34AM 46.4296 -46.5837 79° East  Level FlightAware Approximate
02:41AM 46.5911 -45.1096 81° East  Level FlightAware Approximate
02:42AM 46.6122 -44.8983 82° East  Level FlightAware Approximate
02:43AM 46.6329 -44.6868 82° East  Level FlightAware Approximate
02:44AM 46.6532 -44.4751 82° East  Level FlightAware Approximate
02:45AM 46.6731 -44.2632 82° East  Level FlightAware Approximate
02:46AM 46.6926 -44.0513 82° East  Level FlightAware Approximate
02:47AM 46.7117 -43.8391 82° East  Level FlightAware Approximate
02:48AM 46.7309 -43.6269 82° East  Level FlightAware Approximate
02:49AM 46.7499 -43.4146 82° East  Level FlightAware Approximate
02:50AM 46.7685 -43.2021 83° East  Level FlightAware Approximate
02:51AM 46.7867 -42.9895 83° East  Level FlightAware Approximate
02:52AM 46.8045 -42.7767 83° East  Level FlightAware Approximate
02:53AM 46.8219 -42.5638 83° East  Level FlightAware Approximate
02:54AM 46.8390 -42.3508 83° East  Level FlightAware Approximate
02:55AM 46.8556 -42.1376 83° East  Level FlightAware Approximate
02:56AM 46.8718 -41.9243 84° East  Level FlightAware Approximate
02:57AM 46.8877 -41.7109 84° East  Level FlightAware Approximate
02:58AM 46.9031 -41.4973 84° East  Level FlightAware Approximate
02:59AM 46.9182 -41.2837 84° East  Level FlightAware Approximate
03:00AM 46.9328 -41.0699 84° East  Level FlightAware Approximate
03:01AM 46.9470 -40.8560 84° East  Level FlightAware Approximate
03:02AM 46.9609 -40.6419 85° East  Level FlightAware Approximate
03:03AM 46.9743 -40.4278 85° East  Level FlightAware Approximate
03:04AM 46.9874 -40.2136 85° East  Level FlightAware Approximate
03:05AM 47.0000 -39.9993 86° East  Level FlightAware Approximate
03:06AM 47.0092 -39.7845 86° East  Level FlightAware Approximate
03:07AM 47.0180 -39.5697 86° East  Level FlightAware Approximate
03:08AM 47.0263 -39.3548 87° East  Level FlightAware Approximate
03:09AM 47.0343 -39.1398 87° East  Level FlightAware Approximate
03:10AM 47.0419 -38.9248 87° East  Level FlightAware Approximate
03:11AM 47.0490 -38.7097 87° East  Level FlightAware Approximate
03:12AM 47.0558 -38.4945 87° East  Level FlightAware Approximate
03:13AM 47.0621 -38.2793 87° East  Level FlightAware Approximate
03:14AM 47.0681 -38.0641 88° East  Level FlightAware Approximate
03:15AM 47.0736 -37.8488 88° East  Level FlightAware Approximate
03:16AM 47.0788 -37.6334 88° East  Level FlightAware Approximate
03:17AM 47.0835 -37.4181 88° East  Level FlightAware Approximate
03:18AM 47.0878 -37.2027 88° East  Level FlightAware Approximate
03:19AM 47.0918 -36.9872 88° East  Level FlightAware Approximate
03:20AM 47.0953 -36.7717 89° East  Level FlightAware Approximate
03:21AM 47.0984 -36.5562 89° East  Level FlightAware Approximate
03:22AM 47.1011 -36.3407 89° East  Level FlightAware Approximate
03:23AM 47.1034 -36.1251 89° East  Level FlightAware Approximate
03:24AM 47.1053 -35.9096 89° East  Level FlightAware Approximate
03:25AM 47.1068 -35.6940 89° East  Level FlightAware Approximate
03:26AM 47.1079 -35.4784 89° East  Level FlightAware Approximate
03:27AM 47.1086 -35.2628 90° East  Level FlightAware Approximate
03:28AM 47.1089 -35.0472 90° East  Level FlightAware Approximate
03:29AM 47.1088 -34.8316 90° East  Level FlightAware Approximate
03:30AM 47.1083 -34.6160 90° East  Level FlightAware Approximate
03:31AM 47.1074 -34.4004 90° East  Level FlightAware Approximate
03:32AM 47.1060 -34.1848 90° East  Level FlightAware Approximate
03:33AM 47.1043 -33.9693 91° East  Level FlightAware Approximate
03:34AM 47.1022 -33.7537 91° East  Level FlightAware Approximate
03:35AM 47.0996 -33.5382 91° East  Level FlightAware Approximate
03:36AM 47.0967 -33.3227 91° East  Level FlightAware Approximate
03:37AM 47.0933 -33.1072 91° East  Level FlightAware Approximate
03:38AM 47.0896 -32.8917 91° East  Level FlightAware Approximate
03:39AM 47.0854 -32.6763 92° East  Level FlightAware Approximate
03:40AM 47.0809 -32.4609 92° East  Level FlightAware Approximate
03:41AM 47.0759 -32.2455 92° East  Level FlightAware Approximate
03:42AM 47.0705 -32.0302 92° East  Level FlightAware Approximate
03:43AM 47.0648 -31.8149 92° East  Level FlightAware Approximate
03:44AM 47.0586 -31.5997 92° East  Level FlightAware Approximate
03:45AM 47.0520 -31.3846 92° East  Level FlightAware Approximate
03:46AM 47.0450 -31.1694 93° East  Level FlightAware Approximate
03:47AM 47.0377 -30.9544 93° East  Level FlightAware Approximate
03:48AM 47.0299 -30.7394 93° East  Level FlightAware Approximate
03:49AM 47.0217 -30.5245 93° East  Level FlightAware Approximate
03:50AM 47.0131 -30.3096 93° East  Level FlightAware Approximate
03:51AM 47.0041 -30.0948 93° East  Level FlightAware Approximate
03:52AM 46.9931 -29.8803 95° East  Level FlightAware Approximate
03:53AM 46.9805 -29.6659 95° East  Level FlightAware Approximate
03:54AM 46.9676 -29.4517 95° East  Level FlightAware Approximate
03:55AM 46.9542 -29.2376 95° East  Level FlightAware Approximate
03:56AM 46.9404 -29.0236 95° East  Level FlightAware Approximate
03:57AM 46.9262 -28.8097 95° East  Level FlightAware Approximate
03:58AM 46.9116 -28.5960 96° East  Level FlightAware Approximate
03:59AM 46.8966 -28.3823 96° East  Level FlightAware Approximate
04:00AM 46.8813 -28.1688 96° East  Level FlightAware Approximate
04:01AM 46.8655 -27.9554 96° East  Level FlightAware Approximate
04:02AM 46.8493 -27.7421 96° East  Level FlightAware Approximate
04:03AM 46.8328 -27.5289 96° East  Level FlightAware Approximate
04:04AM 46.8158 -27.3159 97° East  Level FlightAware Approximate
04:05AM 46.7984 -27.1030 97° East  Level FlightAware Approximate
04:06AM 46.7807 -26.8903 97° East  Level FlightAware Approximate
04:07AM 46.7626 -26.6777 97° East  Level FlightAware Approximate
04:08AM 46.7440 -26.4652 97° East  Level FlightAware Approximate
04:09AM 46.7251 -26.2529 97° East  Level FlightAware Approximate
04:10AM 46.7058 -26.0408 97° East  Level FlightAware Approximate
04:11AM 46.6861 -25.8287 98° East  Level FlightAware Approximate
04:12AM 46.6659 -25.6169 98° East  Level FlightAware Approximate
04:13AM 46.6455 -25.4052 98° East  Level FlightAware Approximate
04:14AM 46.6246 -25.1937 98° East  Level FlightAware Approximate
04:15AM 46.6033 -24.9823 98° East  Level FlightAware Approximate
04:16AM 46.5816 -24.7711 98° East  Level FlightAware Approximate
04:17AM 46.5596 -24.5600 99° East  Level FlightAware Approximate
04:18AM 46.5371 -24.3492 99° East  Level FlightAware Approximate
04:19AM 46.5143 -24.1385 99° East  Level FlightAware Approximate
04:20AM 46.4911 -23.9280 99° East  Level FlightAware Approximate
04:21AM 46.4675 -23.7177 99° East  Level FlightAware Approximate
04:22AM 46.4435 -23.5075 99° East  Level FlightAware Approximate
04:23AM 46.4192 -23.2976 99° East  Level FlightAware Approximate
04:24AM 46.3944 -23.0878 100° East  Level FlightAware Approximate
04:25AM 46.3693 -22.8783 100° East  Level FlightAware Approximate
04:26AM 46.3438 -22.6689 100° East  Level FlightAware Approximate
04:27AM 46.3179 -22.4597 100° East  Level FlightAware Approximate
04:28AM 46.2929 -22.2504 100° East  Level FlightAware Approximate
04:29AM 46.2677 -22.0412 100° East  Level FlightAware Approximate
04:30AM 46.2421 -21.8323 100° East  Level FlightAware Approximate
04:31AM 46.2161 -21.6235 100° East  Level FlightAware Approximate
04:32AM 46.1897 -21.4149 100° East  Level FlightAware Approximate
04:33AM 46.1629 -21.2066 100° East  Level FlightAware Approximate
04:34AM 46.1358 -20.9984 101° East  Level FlightAware Approximate
04:35AM 46.1083 -20.7905 101° East  Level FlightAware Approximate
04:36AM 46.0804 -20.5827 101° East  Level FlightAware Approximate
04:37AM 46.0521 -20.3752 101° East  Level FlightAware Approximate
04:38AM 46.0235 -20.1679 101° East  Level FlightAware Approximate
04:39AM 45.9930 -19.9612 104° East  Level FlightAware Approximate
04:40AM 45.9561 -19.7569 105° East  Level FlightAware Approximate
04:41AM 45.9188 -19.5528 105° East  Level FlightAware Approximate
04:42AM 45.8811 -19.3491 105° East  Level FlightAware Approximate
04:43AM 45.8430 -19.1455 105° East  Level FlightAware Approximate
04:44AM 45.8046 -18.9423 105° East  Level FlightAware Approximate
04:45AM 45.7658 -18.7394 105° East  Level FlightAware Approximate
04:46AM 45.7267 -18.5367 105° East  Level FlightAware Approximate
04:47AM 45.6872 -18.3343 106° East  Level FlightAware Approximate
04:48AM 45.6474 -18.1322 106° East  Level FlightAware Approximate
04:49AM 45.6072 -17.9304 106° East  Level FlightAware Approximate
04:50AM 45.5666 -17.7289 106° East  Level FlightAware Approximate
04:51AM 45.5257 -17.5277 106° East  Level FlightAware Approximate
04:52AM 45.4847 -17.3267 106° East  Level FlightAware Approximate
04:53AM 45.4433 -17.1259 106° East  Level FlightAware Approximate
04:54AM 45.4016 -16.9255 106° East  Level FlightAware Approximate
04:55AM 45.3595 -16.7253 107° East  Level FlightAware Approximate
04:56AM 45.3171 -16.5255 107° East  Level FlightAware Approximate
04:57AM 45.2744 -16.3259 107° East  Level FlightAware Approximate
04:58AM 45.2313 -16.1267 107° East  Level FlightAware Approximate
04:59AM 45.1878 -15.9277 107° East  Level FlightAware Approximate
05:00AM 45.1440 -15.7291 107° East  Level FlightAware Approximate
05:01AM 45.0999 -15.5308 107° East  Level FlightAware Approximate
05:02AM 45.0554 -15.3328 108° East  Level FlightAware Approximate
05:03AM 45.0106 -15.1350 108° East  Level FlightAware Approximate
05:04AM 44.9654 -14.9376 108° East  Level FlightAware Approximate
05:05AM 44.9199 -14.7405 108° East  Level FlightAware Approximate
05:06AM 44.8740 -14.5437 108° East  Level FlightAware Approximate
05:07AM 44.8279 -14.3473 108° East  Level FlightAware Approximate
05:08AM 44.7813 -14.1511 108° East  Level FlightAware Approximate
05:09AM 44.7345 -13.9553 109° East  Level FlightAware Approximate
05:10AM 44.6873 -13.7598 109° East  Level FlightAware Approximate
05:11AM 44.6398 -13.5646 109° East  Level FlightAware Approximate
05:12AM 44.5919 -13.3697 109° East  Level FlightAware Approximate
05:13AM 44.5437 -13.1752 109° East  Level FlightAware Approximate
05:14AM 44.4941 -12.9815 114° Southeast  Level FlightAware Approximate
05:15AM 44.4344 -12.7937 114° Southeast  Level FlightAware Approximate
05:16AM 44.3744 -12.6063 114° Southeast  Level FlightAware Approximate
05:16AM 44.0630 -11.6510 114° Southeast 587 676 36,000  Level FlightAware
05:17AM 44.3140 -12.4193 114° Southeast  Level FlightAware Approximate
05:17AM 44.0270 -11.5440 115° Southeast 587 676 36,000  Level FlightAware
05:17AM 43.9920 -11.4390 115° Southeast 587 676 36,000  Level FlightAware
05:18AM 43.9380 -11.2750 115° Southeast 590 679 36,000  Level FlightAware
05:19AM 43.9000 -11.1610 115° Southeast 590 679 36,000  Level FlightAware
05:19AM 43.8610 -11.0490 116° Southeast 591 680 36,000  Level FlightAware
05:19AM 43.8340 -10.9700 115° Southeast 591 680 36,000  Level FlightAware
05:21AM 43.8020 -10.8740 115° Southeast 591 680 36,000  Level FlightAware
05:21AM 43.7630 -10.7600 115° Southeast 591 680 36,000  Level FlightAware
05:22AM 43.7140 -10.6150 115° Southeast 591 680 36,000  Level FlightAware
05:23AM 43.6790 -10.5100 115° Southeast 591 680 36,000  Level FlightAware
05:23AM 43.6550 -10.4400 115° Southeast 591 680 36,000  Level FlightAware
05:24AM 43.5130 -10.0430 116° Southeast 36,000  Level FlightAware
05:25AM 43.4150 -9.7640 116° Southeast 605 696 36,000  Level FlightAware
05:26AM 43.3610 -9.6150 116° Southeast 606 697 36,000  Level FlightAware
05:26AM 43.3290 -9.5220 115° Southeast 606 697 36,000  Level FlightAware
05:27AM 43.2800 -9.3870 116° Southeast 607 699 36,000  Level FlightAware
05:28AM 43.2510 -9.3080 117° Southeast 607 699 36,000  Level FlightAware
05:28AM 43.2040 -9.1770 116° Southeast 608 700 36,000  Level FlightAware
05:29AM 43.1600 -9.0570 117° Southeast 607 699 36,000  Level FlightAware
05:29AM 43.1150 -8.9330 116° Southeast 608 700 36,000  Level FlightAware
05:30AM 43.0530 -8.7650 117° Southeast 607 699 36,000  Level FlightAware
05:30AM 43.0190 -8.6730 117° Southeast 605 696 36,000  Level FlightAware
05:31AM 42.9640 -8.5260 117° Southeast 603 694 36,000  Level FlightAware
05:32AM 42.9280 -8.3890 110° East 595 685 36,000  Level FlightAware
05:32AM 42.9150 -8.2670 98° East 587 676 36,000  Level FlightAware
05:33AM 42.9080 -8.1460 94° East 583 671 36,000  Level FlightAware
05:34AM 42.9000 -8.0000 94° East 582 670 36,000  Level FlightAware
05:34AM 42.8930 -7.8940 95° East 581 669 36,000  Level FlightAware
05:35AM 42.8870 -7.7880 94° East 582 670 36,000  Level FlightAware
05:35AM 42.8760 -7.6240 95° East 581 669 36,000  Level FlightAware
05:36AM 42.8680 -7.5080 95° East 579 666 36,000  Level FlightAware
05:37AM 42.8560 -7.3370 95° East 578 665 36,000  Level FlightAware
05:37AM 42.8430 -7.1570 96° East 576 663 36,000  Level FlightAware
05:38AM 42.8330 -7.0270 96° East 575 662 36,000  Level FlightAware
05:39AM 42.8250 -6.9050 95° East 574 661 36,000  Level FlightAware
05:39AM 42.8150 -6.7760 96° East 575 662 36,000  Level FlightAware
05:39AM 42.8120 -6.7430 97° East 575 662 36,000  Level FlightAware
05:41AM 42.7920 -6.4810 96° East 577 664 36,000  Level FlightAware
05:42AM 42.7790 -6.3080 96° East 576 663 36,000  Level FlightAware
05:42AM 42.7640 -6.1280 96° East 578 665 36,000  Level FlightAware
05:43AM 42.7520 -5.9830 96° East 578 665 36,000  Level FlightAware
05:43AM 42.7510 -5.9650 94° East 578 665 36,000  Level FlightAware
05:44AM 42.7340 -5.7630 96° East 576 663 36,000  Level FlightAware
05:45AM 42.7220 -5.6160 96° East 577 664 36,000  Level FlightAware
05:45AM 42.7110 -5.4900 97° East 575 662 36,000  Level FlightAware
05:46AM 42.7000 -5.3650 97° East 574 661 36,000  Level FlightAware
05:46AM 42.6890 -5.2400 97° East 573 659 36,000  Level FlightAware
05:47AM 42.6790 -5.1330 97° East 572 658 36,000  Level FlightAware
05:47AM 42.6710 -5.0440 97° East 571 657 36,000  Level FlightAware
05:48AM 42.6570 -4.8870 97° East 572 658 36,000  Level FlightAware
05:49AM 42.6450 -4.7590 97° East 571 657 36,000  Level FlightAware
05:49AM 42.6320 -4.6240 97° East 572 658 36,000  Level FlightAware
05:50AM 42.6180 -4.4750 97° East 572 658 36,000  Level FlightAware
05:50AM 42.6070 -4.3570 97° East 572 658 36,000  Level FlightAware
05:51AM 42.5940 -4.2260 98° East 571 657 36,000  Level FlightAware
05:52AM 42.5820 -4.1020 97° East 570 656 36,000  Level FlightAware
05:52AM 42.5710 -3.9960 98° East 570 656 36,000  Level FlightAware
05:53AM 42.5620 -3.9070 98° East 566 651 36,000  Level FlightAware
05:53AM 42.5470 -3.7650 98° East 555 639 36,000  Level FlightAware
05:54AM 42.5300 -3.5930 98° East 554 638 36,000  Level FlightAware
05:55AM 42.5180 -3.4800 98° East 553 636 36,000  Level FlightAware
05:55AM 42.5080 -3.3840 98° East 552 635 36,000  Level FlightAware
05:56AM 42.4930 -3.2480 98° East 549 632 36,000  Level FlightAware
05:57AM 42.4760 -3.0920 98° East 548 631 36,000  Level FlightAware
05:57AM 42.4630 -2.9730 98° East 548 631 36,000  Level FlightAware
05:58AM 42.4460 -2.8550 101° East 547 629 36,000  Level FlightAware
05:58AM 42.4200 -2.7230 105° East 547 629 36,000  Level FlightAware
05:59AM 42.3990 -2.6240 106° East 549 632 36,000  Level FlightAware
05:59AM 42.3740 -2.5090 106° East 550 633 36,000  Level FlightAware
06:01AM 42.3330 -2.3130 106° East 551 634 36,000  Level FlightAware
06:02AM 42.2880 -2.0950 106° East 551 634 36,000  Level FlightAware
06:02AM 42.2640 -1.9790 106° East 550 633 36,000  Level FlightAware
06:03AM 42.2410 -1.8700 106° East 550 633 36,000  Level FlightAware
06:04AM 42.2030 -1.6840 105° East 549 632 36,000  Level FlightAware
06:05AM 42.1580 -1.4870 107° East 546 628 36,000  Level FlightAware
06:05AM 42.1300 -1.3630 107° East 545 627 36,000  Level FlightAware
06:06AM 42.1020 -1.2320 106° East 545 627 36,000  Level FlightAware
06:07AM 42.0740 -1.1060 107° East 545 627 36,000  Level FlightAware
06:07AM 42.0540 -1.0120 106° East 545 627 36,000  Level FlightAware
06:08AM 42.0210 -0.8630 107° East 543 625 36,000  Level FlightAware
06:08AM 41.9910 -0.7310 107° East 541 623 36,000  Level FlightAware
06:09AM 41.9700 -0.6380 107° East 540 621 36,000  Level FlightAware
06:10AM 41.9290 -0.4590 107° East 537 618 36,000  Level FlightAware
06:11AM 41.9070 -0.3660 108° East 536 617 36,000  Level FlightAware
06:11AM 41.8800 -0.2460 107° East 535 616 36,000  Level FlightAware
06:12AM 41.8500 -0.1160 107° East 535 616 36,000  Level FlightAware
06:13AM 41.8100 0.0510 108° East 534 615 36,000  Level FlightAware
06:13AM 41.7870 0.1520 107° East 534 615 36,000  Level FlightAware
06:14AM 41.7560 0.2820 108° East 535 616 36,000  Level FlightAware
06:14AM 41.7300 0.3950 107° East 534 615 36,000  Level FlightAware
06:15AM 41.7040 0.5050 108° East 535 616 36,000  Level FlightAware
06:16AM 41.6760 0.6220 108° East 534 615 36,000  Level FlightAware
06:16AM 41.6490 0.7320 108° East 534 615 36,000  Level FlightAware
06:17AM 41.6200 0.8400 110° East 534 615 36,000  Level FlightAware
06:17AM 41.5870 0.9650 109° East 536 617 36,000  Level FlightAware
06:18AM 41.5620 1.0580 110° East 536 617 36,000  Level FlightAware
06:19AM 41.5340 1.1670 109° East 535 616 36,000  Level FlightAware
06:19AM 41.5050 1.2900 107° East 535 616 36,000  Level FlightAware
06:19AM 41.4950 1.3340 107° East 535 616 36,000  Level FlightAware
06:20AM 41.4690 1.4540 106° East 533 613 36,000  Level FlightAware
06:21AM 41.4280 1.6290 107° East 532 612 36,000  Level FlightAware
06:21AM 41.4040 1.7290 108° East 529 609 36,000  Level FlightAware
06:22AM 41.3750 1.8430 109° East 529 609 36,000  Level FlightAware
06:23AM 41.3550 1.9200 109° East 528 608 36,000  Level FlightAware
06:24AM 41.3160 2.0730 109° East 529 609 36,000  Level FlightAware
06:24AM 41.2850 2.2310 105° East 533 613 36,000  Level FlightAware
06:25AM 41.2670 2.3470 102° East 538 619 36,000  Level FlightAware
06:26AM 41.2400 2.5150 102° East 535 616 36,000  Level FlightAware
06:26AM 41.2150 2.6670 102° East 530 610 36,000  Level FlightAware
06:27AM 41.1980 2.7660 103° East 529 609 36,000  Level FlightAware
06:28AM 41.1780 2.8790 103° East 528 608 36,000  Level FlightAware
06:28AM 41.1580 2.9960 103° East 528 608 36,000  Level FlightAware
06:29AM 41.1430 3.0840 103° East 528 608 36,000  Level FlightAware
06:29AM 41.1210 3.2110 103° East 530 610 36,000  Level FlightAware
06:30AM 41.1020 3.3180 103° East 531 611 36,000  Level FlightAware
06:30AM 41.0900 3.3880 103° East 532 612 36,000  Level FlightAware
06:31AM 41.0720 3.4860 104° East 533 613 36,000  Level FlightAware
06:32AM 41.0430 3.6520 103° East 533 613 36,000  Level FlightAware
06:33AM 41.0110 3.8300 103° East 533 613 36,000  Level FlightAware
06:33AM 40.9900 3.9430 104° East 532 612 36,000  Level FlightAware
06:34AM 40.9700 4.0540 103° East 531 611 36,000  Level FlightAware
06:34AM 40.9530 4.1490 103° East 531 611 36,000  Level FlightAware
06:35AM 40.9330 4.2560 104° East 529 609 36,000  Level FlightAware
06:36AM 40.9100 4.3850 103° East 527 606 36,000  Level FlightAware
06:36AM 40.8890 4.4950 104° East 526 605 36,000  Level FlightAware
06:37AM 40.8720 4.5880 104° East 525 604 36,000  Level FlightAware
06:37AM 40.8580 4.6770 102° East 528 608 36,000  Level FlightAware
06:38AM 40.8440 4.7920 99° East 528 608 36,000  Level FlightAware
06:39AM 40.8330 4.8920 98° East 528 608 36,000  Level FlightAware
06:39AM 40.8230 4.9900 98° East 528 608 36,000  Level FlightAware
06:40AM 40.8100 5.1150 98° East 528 608 36,000  Level FlightAware
06:41AM 40.7950 5.2510 98° East 528 608 36,000  Level FlightAware
06:43AM 40.7482 5.5707 101° East  Level Estimated
06:44AM 40.7199 5.7604 101° East  Level Estimated
06:44AM 40.7390 5.8830 101° East 530 610 36,000  Level FlightAware
06:44AM 40.7220 6.0560 97° East 528 608 36,000  Level FlightAware
06:45AM 40.7110 6.1520 99° East 529 609 36,000  Level FlightAware
06:46AM 40.6960 6.2990 98° East 530 610 36,000  Level FlightAware
06:46AM 40.6810 6.4400 98° East 532 612 36,000  Level FlightAware
06:47AM 40.6680 6.5590 98° East 533 613 36,000  Level FlightAware
06:47AM 40.6560 6.6710 98° East 533 613 36,000  Level FlightAware
06:48AM 40.6450 6.7680 98° East 533 613 36,000  Level FlightAware
06:49AM 40.6310 6.8930 98° East 533 613 36,000  Level FlightAware
06:49AM 40.6180 7.0090 98° East 532 612 36,000  Level FlightAware
06:50AM 40.6060 7.1210 98° East 532 612 36,000  Level FlightAware
06:50AM 40.5920 7.2330 99° East 532 612 36,000  Level FlightAware
06:51AM 40.5820 7.3280 98° East 531 611 36,000  Level FlightAware
06:52AM 40.5700 7.4240 99° East 529 609 36,000  Level FlightAware
06:52AM 40.5570 7.5350 99° East 528 608 36,000  Level FlightAware
06:53AM 40.5450 7.6330 99° East 527 606 36,000  Level FlightAware
06:53AM 40.5300 7.7560 99° East 526 605 36,000  Level FlightAware
06:54AM 40.5130 7.9010 99° East 526 605 36,000  Level FlightAware
06:54AM 40.4990 8.0080 100° East 526 605 36,000  Level FlightAware
06:55AM 40.4860 8.1210 99° East 526 605 36,000  Level FlightAware
06:56AM 40.4720 8.2290 100° East 528 608 36,000  Level FlightAware
06:56AM 40.4620 8.3110 99° East 531 611 36,000  Level FlightAware
06:57AM 40.4500 8.4040 100° East 530 610 36,000  Level FlightAware
06:58AM 40.4310 8.5530 99° East 533 613 36,000  Level FlightAware
06:58AM 40.4110 8.7100 99° East 535 616 36,000  Level FlightAware
06:59AM 40.3980 8.8060 100° East 537 618 36,000  Level FlightAware
06:59AM 40.3840 8.9150 100° East 537 618 36,000  Level FlightAware
07:00AM 40.3660 9.0480 100° East 539 620 36,000  Level FlightAware
07:00AM 40.3560 9.1250 100° East 540 621 36,000  Level FlightAware
07:01AM 40.3440 9.2120 100° East 545 627 36,000  Level FlightAware
07:02AM 40.3230 9.3690 100° East 548 631 36,000  Level FlightAware
07:02AM 40.3030 9.5190 100° East 548 631 36,000  Level FlightAware
07:03AM 40.2870 9.6300 101° East 548 631 36,000  Level FlightAware
07:03AM 40.2730 9.7310 100° East 547 629 36,000  Level FlightAware
07:04AM 40.2550 9.8580 100° East 546 628 36,000  Level FlightAware
07:05AM 40.2390 9.9750 100° East 547 629 36,000  Level FlightAware
07:05AM 40.2230 10.0860 101° East 546 628 36,000  Level FlightAware
07:06AM 40.2070 10.2030 100° East 546 628 36,000  Level FlightAware
07:06AM 40.1950 10.2800 102° East 545 627 36,000  Level FlightAware
07:07AM 40.1810 10.3800 100° East 544 626 36,000  Level FlightAware
07:08AM 40.1660 10.4800 101° East 544 626 36,000  Level FlightAware
07:08AM 40.1410 10.6540 101° East 543 625 36,000  Level FlightAware
07:09AM 40.1220 10.7870 101° East 543 625 36,000  Level FlightAware
07:09AM 40.1040 10.8990 102° East 545 627 36,000  Level FlightAware
07:10AM 40.0860 11.0250 101° East 546 628 36,000  Level FlightAware
07:11AM 40.0690 11.1380 101° East 547 629 36,000  Level FlightAware
07:11AM 40.0590 11.2030 101° East 547 629 36,000  Level FlightAware
07:12AM 40.0390 11.3290 102° East 546 628 36,000  Level FlightAware
07:12AM 40.0200 11.4520 101° East 546 628 36,000  Level FlightAware
07:13AM 40.0030 11.5610 101° East 545 627 36,000  Level FlightAware
07:14AM 39.9790 11.7190 101° East 545 627 36,000  Level FlightAware
07:14AM 39.9600 11.8350 102° East 545 627 36,000  Level FlightAware
07:15AM 39.9410 11.9530 102° East 544 626 36,000  Level FlightAware
07:15AM 39.9250 12.0560 101° East 545 627 36,000  Level FlightAware
07:16AM 39.9100 12.1490 102° East 544 626 36,000  Level FlightAware
07:17AM 39.8880 12.2800 102° East 543 625 36,000  Level FlightAware
07:17AM 39.8760 12.3570 101° East 543 625 36,000  Level FlightAware
07:18AM 39.8630 12.4370 102° East 543 625 36,000  Level FlightAware
07:18AM 39.8410 12.5710 102° East 544 626 36,000  Level FlightAware
07:19AM 39.8170 12.7120 102° East 545 627 36,000  Level FlightAware
07:20AM 39.7920 12.8650 102° East 545 627 36,000  Level FlightAware
07:20AM 39.7730 12.9740 103° East 543 625 36,000 60 Level FlightAware
07:21AM 39.7550 13.0790 103° East 542 624 36,100 720 Climbing FlightAware
07:21AM 39.7350 13.1990 102° East 538 619 36,900 720 Climbing FlightAware
07:22AM 39.7150 13.3090 103° East 537 618 37,000 60 Climbing FlightAware
07:23AM 39.6940 13.4220 104° East 535 616 37,000  Level FlightAware
07:23AM 39.6750 13.5240 104° East 533 613 37,000  Level FlightAware
07:24AM 39.6550 13.6330 103° East 531 611 37,000  Level FlightAware
07:24AM 39.6340 13.7440 104° East 530 610 37,000  Level FlightAware
07:25AM 39.6140 13.8530 103° East 529 609 37,000  Level FlightAware
07:25AM 39.5950 13.9540 104° East 528 608 37,000  Level FlightAware
07:26AM 39.5730 14.0710 104° East 528 608 37,000  Level FlightAware
07:27AM 39.5540 14.1690 104° East 528 608 37,000  Level FlightAware
07:27AM 39.5340 14.2760 104° East 529 609 37,000  Level FlightAware
07:28AM 39.5120 14.3870 104° East 529 609 37,000  Level FlightAware
07:28AM 39.4960 14.4700 104° East 529 609 37,000  Level FlightAware
07:29AM 39.4700 14.6050 104° East 528 608 37,000  Level FlightAware
07:29AM 39.4520 14.7000 104° East 529 609 37,000  Level FlightAware
07:30AM 39.4300 14.8100 104° East 530 610 37,000  Level FlightAware
07:31AM 39.4060 14.9300 104° East 530 610 37,000  Level FlightAware
07:31AM 39.3870 15.0250 104° East 530 610 37,000  Level FlightAware
07:32AM 39.3680 15.1200 104° East 530 610 37,000  Level FlightAware
07:33AM 39.3470 15.2270 104° East 529 609 37,000  Level FlightAware
07:33AM 39.3250 15.3370 104° East 528 608 37,000  Level FlightAware
07:34AM 39.3030 15.4440 105° East 528 608 37,000  Level FlightAware
07:34AM 39.2810 15.5580 104° East 528 608 37,000  Level FlightAware
07:35AM 39.2520 15.6920 106° East 525 604 37,000  Level FlightAware
07:36AM 39.2280 15.8100 105° East 523 602 37,000  Level FlightAware
07:36AM 39.2040 15.9270 105° East 521 600 37,000  Level FlightAware
07:37AM 39.1840 16.0230 105° East 521 600 37,000  Level FlightAware
07:37AM 39.1610 16.1340 105° East 520 598 37,000  Level FlightAware
07:38AM 39.1340 16.2630 105° East 521 600 37,000  Level FlightAware
07:39AM 39.1130 16.3580 106° East 521 600 37,000  Level FlightAware
07:39AM 39.0980 16.4300 105° East 521 600 37,000  Level FlightAware
07:40AM 39.0760 16.5320 105° East 522 601 37,000  Level FlightAware
07:40AM 39.0480 16.6630 105° East 522 601 37,000  Level FlightAware
07:41AM 39.0210 16.7890 105° East 524 603 37,000  Level FlightAware
07:42AM 38.9880 16.9390 106° East 524 603 37,000  Level FlightAware
07:42AM 38.9610 17.0620 106° East 524 603 37,000  Level FlightAware
07:43AM 38.9380 17.1700 105° East 525 604 37,000  Level FlightAware
07:44AM 38.9170 17.2630 106° East 525 604 37,000  Level FlightAware
07:44AM 38.8990 17.3470 105° East 525 604 37,000  Level FlightAware
07:45AM 38.8750 17.4520 106° East 526 605 37,000  Level FlightAware
07:46AM 38.8460 17.5840 106° East 526 605 37,000  Level FlightAware
07:46AM 38.8140 17.7270 106° East 525 604 37,000  Level FlightAware
07:47AM 38.7910 17.8290 106° East 525 604 37,000  Level FlightAware
07:47AM 38.7760 17.8920 107° East 525 604 37,000  Level FlightAware
07:48AM 38.7440 18.0320 106° East 525 604 37,000  Level FlightAware
07:49AM 38.7170 18.1520 106° East 525 604 37,000  Level FlightAware
07:49AM 38.6920 18.2590 107° East 526 605 37,000  Level FlightAware
07:50AM 38.6700 18.3570 106° East 526 605 37,000  Level FlightAware
07:50AM 38.6470 18.4560 107° East 526 605 37,000  Level FlightAware
07:51AM 38.6220 18.5630 107° East 525 604 37,000  Level FlightAware
07:51AM 38.6020 18.6460 107° East 525 604 37,000  Level FlightAware
07:52AM 38.5820 18.7320 107° East 525 604 37,000  Level FlightAware
07:53AM 38.5590 18.8300 107° East 525 604 37,000  Level FlightAware
07:53AM 38.5430 18.8950 107° East 525 604 37,000  Level FlightAware
07:54AM 38.5040 19.0480 108° East 523 602 37,000  Level FlightAware
07:55AM 38.4790 19.1400 109° East 523 602 37,000  Level FlightAware
07:55AM 38.4350 19.2780 112° Southeast 521 600 37,000  Level FlightAware
07:56AM 38.4060 19.3760 111° Southeast 521 600 37,000  Level FlightAware
07:56AM 38.3710 19.4930 111° Southeast 520 598 37,000  Level FlightAware
07:57AM 38.3440 19.5820 111° Southeast 520 598 37,000  Level FlightAware
07:57AM 38.3190 19.6650 111° Southeast 520 598 37,000  Level FlightAware
07:58AM 38.2980 19.7400 110° East 520 598 37,000  Level FlightAware
07:59AM 38.2710 19.8360 110° East 520 598 37,000  Level FlightAware
07:59AM 38.2470 19.9190 110° East 520 598 37,000  Level FlightAware
08:00AM 38.1840 20.1120 113° Southeast 522 601 37,000  Level FlightAware
08:01AM 38.1470 20.2310 112° Southeast 520 598 37,000  Level FlightAware
08:02AM 38.0930 20.4050 111° Southeast 523 602 37,000  Level FlightAware
08:02AM 38.0630 20.5030 111° Southeast 523 602 37,000  Level FlightAware
08:03AM 38.0370 20.5910 111° Southeast 523 602 37,000  Level FlightAware
08:04AM 37.9930 20.7370 111° Southeast 523 602 37,000  Level FlightAware
08:05AM 37.9590 20.8490 111° Southeast 523 602 37,000  Level FlightAware
08:05AM 37.8780 21.0890 113° Southeast 523 602 37,000  Level FlightAware
08:06AM 37.8500 21.1800 111° Southeast 523 602 37,000  Level FlightAware
08:07AM 37.8040 21.3220 112° Southeast 523 602 37,000  Level FlightAware
08:08AM 37.7590 21.4630 112° Southeast 523 602 37,000  Level FlightAware
08:08AM 37.7300 21.5510 113° Southeast 523 602 37,000  Level FlightAware
08:08AM 37.7170 21.5910 112° Southeast 523 602 37,000  Level FlightAware
08:09AM 37.6740 21.7230 112° Southeast 523 602 37,000  Level FlightAware
08:10AM 37.6190 21.8950 112° Southeast 522 601 37,000  Level FlightAware
08:11AM 37.5840 22.0000 113° Southeast 520 598 37,000  Level FlightAware
08:12AM 37.5440 22.1240 112° Southeast 520 598 37,000  Level FlightAware
08:12AM 37.5270 22.1740 113° Southeast 522 601 37,000  Level FlightAware
08:13AM 37.4900 22.2840 113° Southeast 522 601 37,000  Level FlightAware
08:14AM 37.4580 22.3890 111° Southeast 522 601 37,000  Level FlightAware
08:15AM 37.3970 22.5690 113° Southeast 526 605 37,000  Level FlightAware
08:15AM 37.3420 22.7270 114° Southeast 529 609 37,000  Level FlightAware
08:16AM 37.3100 22.8240 113° Southeast 531 611 37,000  Level FlightAware
08:16AM 37.2740 22.9290 113° Southeast 533 613 37,000  Level FlightAware
08:17AM 37.2460 23.0140 112° Southeast 533 613 37,000  Level FlightAware
08:17AM 37.2100 23.1200 113° Southeast 534 615 37,000  Level FlightAware
08:18AM 37.1740 23.2220 114° Southeast 535 616 37,000  Level FlightAware
08:19AM 37.1390 23.3270 113° Southeast 536 617 37,000  Level FlightAware
08:19AM 37.1050 23.4250 113° Southeast 536 617 37,000  Level FlightAware
08:19AM 37.0910 23.4670 113° Southeast 536 617 37,000  Level FlightAware
08:21AM 37.0290 23.6440 114° Southeast 536 617 37,000  Level FlightAware
08:21AM 36.9920 23.7490 114° Southeast 537 618 37,000  Level FlightAware
08:22AM 36.9600 23.8430 113° Southeast 536 617 37,000  Level FlightAware
08:22AM 36.9250 23.9420 114° Southeast 536 617 37,000  Level FlightAware
08:22AM 36.9120 23.9790 114° Southeast 536 617 37,000  Level FlightAware
08:24AM 36.8590 24.1340 113° Southeast 536 617 37,000  Level FlightAware
08:24AM 36.8230 24.2310 115° Southeast 536 617 37,000  Level FlightAware
08:25AM 36.7940 24.3170 113° Southeast 536 617 37,000  Level FlightAware
08:25AM 36.7440 24.4540 114° Southeast 534 615 37,000  Level FlightAware
08:26AM 36.6900 24.6050 114° Southeast 533 613 37,000  Level FlightAware
08:27AM 36.6280 24.7790 114° Southeast 532 612 37,000  Level FlightAware
08:28AM 36.5960 24.8680 114° Southeast 532 612 37,000  Level FlightAware
08:28AM 36.5570 24.9770 114° Southeast 531 611 37,000  Level FlightAware
08:29AM 36.5310 25.0460 115° Southeast 531 611 37,000  Level FlightAware
08:30AM 36.4920 25.1520 115° Southeast 531 611 37,000  Level FlightAware
08:30AM 36.4560 25.2520 114° Southeast 528 608 37,000  Level FlightAware
08:31AM 36.4060 25.3880 115° Southeast 530 610 37,000  Level FlightAware
08:32AM 36.3620 25.5070 115° Southeast 530 610 37,000  Level FlightAware
08:32AM 36.3350 25.5810 114° Southeast 529 609 37,000  Level FlightAware
08:33AM 36.3030 25.6670 115° Southeast 527 606 37,000  Level FlightAware
08:34AM 36.2430 25.8270 115° Southeast 530 610 37,000  Level FlightAware
08:34AM 36.2060 25.9260 115° Southeast 529 609 37,000  Level FlightAware
08:35AM 36.1730 26.0160 114° Southeast 528 608 37,000  Level FlightAware
08:35AM 36.1350 26.1180 115° Southeast 528 608 37,000  Level FlightAware
08:36AM 36.1040 26.1970 116° Southeast 528 608 37,000  Level FlightAware
08:36AM 36.0650 26.3040 114° Southeast 529 609 37,000  Level FlightAware
08:37AM 36.0270 26.4030 115° Southeast 529 609 37,000  Level FlightAware
08:38AM 35.9900 26.5010 115° Southeast 530 610 37,000  Level FlightAware
08:38AM 35.9670 26.5610 115° Southeast 530 610 37,000  Level FlightAware
08:39AM 35.9210 26.6820 115° Southeast 530 610 37,000  Level FlightAware
08:39AM 35.8870 26.7690 116° Southeast 529 609 37,000  Level FlightAware
08:41AM 35.8160 26.9540 115° Southeast 530 610 37,000  Level FlightAware
08:41AM 35.7720 27.0700 115° Southeast 530 610 37,000  Level FlightAware
08:42AM 35.7420 27.1490 115° Southeast 530 610 37,000  Level FlightAware
08:43AM 35.6420 27.4070 115° Southeast 530 610 37,000  Level FlightAware
08:44AM 35.6100 27.4900 115° Southeast 530 610 37,000  Level FlightAware
08:44AM 35.5810 27.5670 115° Southeast 530 610 37,000  Level FlightAware
08:45AM 35.5480 27.6550 115° Southeast 530 610 37,000  Level FlightAware
08:46AM 35.4940 27.7970 115° Southeast 530 610 37,000  Level FlightAware
08:47AM 35.3940 28.0290 118° Southeast 526 605 37,000  Level FlightAware
08:48AM 35.3470 28.1470 116° Southeast 525 604 37,000  Level FlightAware
08:48AM 35.3220 28.2080 117° Southeast 525 604 37,000  Level FlightAware
08:49AM 35.2720 28.3330 116° Southeast 525 604 37,000  Level FlightAware
08:50AM 35.2330 28.4290 116° Southeast 525 604 37,000  Level FlightAware
08:50AM 35.1840 28.5510 116° Southeast 525 604 37,000  Level FlightAware
08:51AM 35.1380 28.6630 117° Southeast 521 600 37,000  Level FlightAware
08:52AM 35.0970 28.7640 116° Southeast 521 600 37,000  Level FlightAware
08:52AM 35.0450 28.8930 116° Southeast 520 598 37,000  Level FlightAware
08:53AM 35.0060 28.9880 117° Southeast 520 598 37,000  Level FlightAware
08:54AM 34.9730 29.0740 115° Southeast 520 598 37,000  Level FlightAware
08:54AM 34.9410 29.1580 115° Southeast 520 598 37,000  Level FlightAware
08:55AM 34.9100 29.2370 116° Southeast 520 598 37,000  Level FlightAware
08:56AM 34.8500 29.3640 120° Southeast 517 595 37,000  Level FlightAware
08:56AM 34.8160 29.4450 117° Southeast 516 594 37,000  Level FlightAware
08:57AM 34.7590 29.5830 117° Southeast 515 593 37,000  Level FlightAware
08:57AM 34.7220 29.6680 118° Southeast 514 592 37,000  Level FlightAware
08:58AM 34.6790 29.7720 117° Southeast 513 590 37,000  Level FlightAware
08:59AM 34.6430 29.8570 117° Southeast 513 590 37,000  Level FlightAware
08:59AM 34.5910 29.9810 117° Southeast 513 590 37,000  Level FlightAware
09:02AM 34.4306 30.3026 121° Southeast  Level FlightAware Approximate
09:02AM 34.4610 30.3040 121° Southeast 513 590 37,000  Level FlightAware
09:03AM 34.3890 30.3980 133° Southeast 513 590 37,000  Level FlightAware
09:03AM 34.3540 30.4720 120° Southeast 513 590 37,000  Level FlightAware
09:04AM 34.2890 30.6060 120° Southeast 512 589 37,000  Level FlightAware
09:05AM 34.2430 30.7020 120° Southeast 512 589 37,000  Level FlightAware
09:05AM 34.2040 30.7840 120° Southeast 513 590 37,000  Level FlightAware
09:05AM 34.1870 30.8170 122° Southeast 514 592 37,000  Level FlightAware
09:06AM 34.0890 31.0170 121° Southeast 515 593 37,000  Level FlightAware
09:07AM 34.0520 31.0940 120° Southeast 516 594 37,000  Level FlightAware
09:07AM 34.0100 31.1810 120° Southeast 513 590 37,000  Level FlightAware
09:08AM 33.9480 31.3050 121° Southeast 513 590 37,000  Level FlightAware
09:09AM 33.9090 31.3840 121° Southeast 514 592 37,000  Level FlightAware
09:09AM 33.8680 31.4680 120° Southeast 513 590 37,000  Level FlightAware
09:10AM 33.8190 31.5670 121° Southeast 512 589 37,000  Level FlightAware
09:11AM 33.7820 31.6410 121° Southeast 511 588 37,000  Level FlightAware
09:11AM 33.7390 31.7290 120° Southeast 510 587 37,000  Level FlightAware
09:12AM 33.6910 31.8250 121° Southeast 510 587 37,000 -120 Level FlightAware
09:12AM 33.6460 31.9130 122° Southeast 509 586 36,900 -720 Descending FlightAware
09:13AM 33.6090 31.9860 121° Southeast 512 589 36,200 -1,380 Descending FlightAware
09:14AM 33.5540 32.0950 121° Southeast 519 597 35,200 -1,200 Descending FlightAware
09:15AM 33.4850 32.2340 121° Southeast 519 597 34,300 -1,080 Descending FlightAware
09:15AM 33.4470 32.3080 122° Southeast 523 602 33,600 -1,440 Descending FlightAware
09:16AM 33.3960 32.4080 121° Southeast 526 605 32,600 -1,380 Descending FlightAware
09:16AM 33.3520 32.4940 121° Southeast 516 594 32,000 -1,140 Descending FlightAware
09:17AM 33.3090 32.5800 121° Southeast 515 593 31,300 -900 Descending FlightAware
09:18AM 33.2650 32.6660 121° Southeast 524 603 31,000 -420 Descending FlightAware
09:18AM 33.2130 32.7660 122° Southeast 531 611 30,800 -420 Descending FlightAware
09:19AM 33.1700 32.8520 121° Southeast 536 617 30,500 -1,320 Descending FlightAware
09:21AM 33.0004 33.0660 121° Southeast  Level FlightAware Approximate
09:21AM 32.9820 33.2100 121° Southeast 516 594 26,700  Level FlightAware
09:22AM 32.9250 33.2168 121° Southeast  Level FlightAware Approximate
09:22AM 32.9170 33.3170 126° Southeast 503 579 25,200  Level FlightAware
09:23AM 32.8500 33.4280 126° Southeast 487 560 23,200 -2,940 Descending FlightAware
09:23AM 32.8090 33.4970 125° Southeast 478 550 21,800 -2,580 Descending FlightAware
09:24AM 32.7910 33.5270 126° Southeast 475 547 21,200 -2,640 Descending FlightAware
09:25AM 32.7160 33.6530 125° Southeast 458 527 18,600 -2,340 Descending FlightAware
09:25AM 32.6790 33.7180 124° Southeast 442 509 17,600 -1,440 Descending FlightAware
09:26AM 32.6540 33.7590 126° Southeast 424 488 17,100 -1,140 Descending FlightAware
09:27AM 32.5950 33.8570 126° Southeast 383 441 16,000 -1,380 Descending FlightAware
09:27AM 32.5460 33.9390 125° Southeast 355 409 15,000 -1,140 Descending FlightAware
09:28AM 32.5100 33.9990 125° Southeast 328 377 14,600 -960 Descending FlightAware
09:28AM 32.4800 34.0480 126° Southeast 317 365 13,900 -1,380 Descending FlightAware
09:29AM 32.4380 34.1180 125° Southeast 312 359 12,700 -1,020 Descending FlightAware
09:30AM 32.4040 34.1750 125° Southeast 311 358 12,300 -300 Descending FlightAware
09:31AM 32.3780 34.2180 126° Southeast 311 358 12,300  Level FlightAware
09:31AM 32.3440 34.2760 125° Southeast 311 358 12,300 -2,460 Level FlightAware
09:32AM 32.2900 34.3620 127° Southeast 301 346 8,500 -3,240 Descending FlightAware
09:33AM 32.2550 34.4210 125° Southeast 298 343 7,500 -900 Descending FlightAware
09:33AM 32.2370 34.4500 126° Southeast 298 343 7,500  Level FlightAware
09:36AM 32.0598 34.7588 115° Southeast  Level FlightAware Approximate
09:37AM 32.0000 34.8667 125° Southeast  Level FlightAware Approximate
09:38AM 32.0095 34.8769 125° Southeast  Level Estimated
09:39AM 32.0095 34.8769 125° Southeast  Level Estimated
09:40AM 32.0095 34.8769 125° Southeast  Level Estimated
09:41AM 32.0095 34.8769 125° Southeast  Level Estimated
09:42AM 32.0095 34.8769 125° Southeast  Level Estimated
09:43AM 32.0095 34.8769 125° Southeast  Level Estimated
09:44AM 32.0095 34.8769 125° Southeast  Level Estimated